createdAt,value
2022-11-26T00:00:58.434Z,60.94
2022-11-26T00:03:00.168Z,61.24
2022-11-26T00:05:02.517Z,60.73
2022-11-26T00:07:04.296Z,61.23
2022-11-26T00:09:12.344Z,61.20
2022-11-26T00:11:16.309Z,60.99
2022-11-26T00:13:28.065Z,61.28
2022-11-26T00:15:33.441Z,61.08
2022-11-26T00:17:36.400Z,60.99
2022-11-26T00:19:37.843Z,60.93
2022-11-26T00:21:42.524Z,60.99
2022-11-26T00:23:46.886Z,61.31
2022-11-26T00:25:51.826Z,61.31
2022-11-26T00:27:57.429Z,61.14
2022-11-26T00:29:59.019Z,61.38
2022-11-26T00:32:00.879Z,61.11
2022-11-26T00:34:02.572Z,61.19
2022-11-26T00:36:12.133Z,61.51
2022-11-26T00:38:19.789Z,60.99
2022-11-26T00:40:27.689Z,61.08
2022-11-26T00:42:29.298Z,61.57
2022-11-26T00:44:32.203Z,61.37
2022-11-26T00:46:33.773Z,61.16
2022-11-26T00:48:35.254Z,61.45
2022-11-26T00:50:41.379Z,61.04
2022-11-26T00:52:44.298Z,61.16
2022-11-26T00:54:45.889Z,61.19
2022-11-26T00:56:48.787Z,61.43
2022-11-26T00:58:50.783Z,61.51
2022-11-26T01:00:54.726Z,61.47
2022-11-26T01:03:00.126Z,61.03
2022-11-26T01:05:04.865Z,61.48
2022-11-26T01:07:06.545Z,61.41
2022-11-26T01:09:15.161Z,61.47
2022-11-26T01:11:20.033Z,61.31
2022-11-26T01:13:21.589Z,61.29
2022-11-26T01:15:25.702Z,61.33
2022-11-26T01:17:27.316Z,61.32
2022-11-26T01:19:28.837Z,61.24
2022-11-26T01:21:31.517Z,61.25
2022-11-26T01:23:33.142Z,61.51
2022-11-26T01:25:34.595Z,61.47
2022-11-26T01:27:38.679Z,61.23
2022-11-26T01:29:40.261Z,61.38
2022-11-26T01:31:42.180Z,61.37
2022-11-26T01:33:44.404Z,61.29
2022-11-26T01:35:46.135Z,61.24
2022-11-26T01:37:55.797Z,61.31
2022-11-26T01:39:57.419Z,61.31
2022-11-26T01:42:20.892Z,61.65
2022-11-26T01:44:28.385Z,61.64
2022-11-26T01:46:34.262Z,61.58
2022-11-26T01:48:35.997Z,61.22
2022-11-26T01:50:59.202Z,61.69
2022-11-26T01:53:07.369Z,61.60
2022-11-26T01:55:17.969Z,61.46
2022-11-26T01:57:28.366Z,61.10
2022-11-26T01:59:34.851Z,61.47
2022-11-26T02:01:37.275Z,61.39
2022-11-26T02:03:51.109Z,61.48
2022-11-26T02:06:01.559Z,61.46
2022-11-26T02:08:03.413Z,61.34
2022-11-26T02:10:05.610Z,61.36
2022-11-26T02:12:07.432Z,61.31
2022-11-26T02:14:16.004Z,61.32
2022-11-26T02:16:47.260Z,61.52
2022-11-26T02:19:07.699Z,61.37
2022-11-26T02:21:16.502Z,61.96
2022-11-26T02:23:27.723Z,61.41
2022-11-26T02:25:56.031Z,61.47
2022-11-26T02:28:27.304Z,61.53
2022-11-26T02:30:32.575Z,61.22
2022-11-26T02:32:54.471Z,61.52
2022-11-26T02:35:07.229Z,61.46
2022-11-26T02:37:17.403Z,61.70
2022-11-26T02:39:22.723Z,61.53
2022-11-26T02:41:24.282Z,61.85
2022-11-26T02:43:26.627Z,61.41
2022-11-26T02:45:38.885Z,61.55
2022-11-26T02:47:44.711Z,61.82
2022-11-26T02:49:49.677Z,61.88
2022-11-26T02:51:55.707Z,61.56
2022-11-26T02:53:58.229Z,61.48
2022-11-26T02:56:15.633Z,61.97
2022-11-26T02:58:18.762Z,61.70
2022-11-26T03:00:21.141Z,61.53
2022-11-26T03:02:34.143Z,61.76
2022-11-26T03:04:40.805Z,61.79
2022-11-26T03:06:43.966Z,61.67
2022-11-26T03:08:45.768Z,61.68
2022-11-26T03:10:47.674Z,61.75
2022-11-26T03:12:49.400Z,61.77
2022-11-26T03:14:51.810Z,61.60
2022-11-26T03:16:53.671Z,61.59
2022-11-26T03:18:55.254Z,61.64
2022-11-26T03:20:56.670Z,61.83
2022-11-26T03:22:58.966Z,61.79
2022-11-26T03:25:00.707Z,61.69
2022-11-26T03:27:02.212Z,61.90
2022-11-26T03:29:03.867Z,61.97
2022-11-26T03:31:05.408Z,61.57
2022-11-26T03:33:07.182Z,61.57
2022-11-26T03:35:09.151Z,61.81
2022-11-26T03:37:10.970Z,61.84
2022-11-26T03:39:12.953Z,61.52
2022-11-26T03:41:14.930Z,61.68
2022-11-26T03:43:16.727Z,62.02
2022-11-26T03:45:18.604Z,61.96
2022-11-26T03:47:20.399Z,61.82
2022-11-26T03:49:22.428Z,61.88
2022-11-26T03:51:24.264Z,61.75
2022-11-26T03:53:28.530Z,61.52
2022-11-26T03:55:30.259Z,61.93
2022-11-26T03:57:31.802Z,61.94
2022-11-26T03:59:33.630Z,61.87
2022-11-26T04:01:35.554Z,61.59
2022-11-26T04:03:38.199Z,61.84
2022-11-26T04:05:39.818Z,61.87
2022-11-26T04:07:41.523Z,61.88
2022-11-26T04:09:45.400Z,61.68
2022-11-26T04:11:47.004Z,61.98
2022-11-26T04:13:48.538Z,61.81
2022-11-26T04:15:51.461Z,61.70
2022-11-26T04:17:53.102Z,61.57
2022-11-26T04:19:54.822Z,61.50
2022-11-26T04:21:56.472Z,61.66
2022-11-26T04:23:58.151Z,62.04
2022-11-26T04:26:02.512Z,61.97
2022-11-26T04:28:04.262Z,61.77
2022-11-26T04:30:07.951Z,61.62
2022-11-26T04:32:09.845Z,61.98
2022-11-26T04:34:11.570Z,61.77
2022-11-26T04:36:13.124Z,61.82
2022-11-26T04:38:21.569Z,61.91
2022-11-26T04:40:26.637Z,61.57
2022-11-26T04:42:28.277Z,62.12
2022-11-26T04:44:30.210Z,61.93
2022-11-26T04:46:31.744Z,61.79
2022-11-26T04:48:33.548Z,61.78
2022-11-26T04:50:35.586Z,61.84
2022-11-26T04:52:37.305Z,62.03
2022-11-26T04:54:39.297Z,61.53
2022-11-26T04:56:43.016Z,61.92
2022-11-26T04:58:47.444Z,62.02
2022-11-26T05:00:51.350Z,62.11
2022-11-26T05:02:55.983Z,62.01
2022-11-26T05:04:57.557Z,61.89
2022-11-26T05:06:59.134Z,62.23
2022-11-26T05:09:00.728Z,61.91
2022-11-26T05:11:03.227Z,62.04
2022-11-26T05:13:04.855Z,61.82
2022-11-26T05:15:09.555Z,62.04
2022-11-26T05:17:11.201Z,62.07
2022-11-26T05:19:12.705Z,61.98
2022-11-26T05:21:14.358Z,61.83
2022-11-26T05:23:15.849Z,62.18
2022-11-26T05:25:17.580Z,62.00
2022-11-26T05:27:19.100Z,61.95
2022-11-26T05:29:20.719Z,62.08
2022-11-26T05:31:22.489Z,62.06
2022-11-26T05:33:24.143Z,61.96
2022-11-26T05:35:26.115Z,62.12
2022-11-26T05:37:27.716Z,61.94
2022-11-26T05:39:33.803Z,61.96
2022-11-26T05:41:35.721Z,61.84
2022-11-26T05:43:37.281Z,62.15
2022-11-26T05:45:39.074Z,61.79
2022-11-26T05:47:40.684Z,62.10
2022-11-26T05:49:42.446Z,61.90
2022-11-26T05:51:44.164Z,62.07
2022-11-26T05:53:45.738Z,62.00
2022-11-26T05:55:47.405Z,61.99
2022-11-26T05:57:51.427Z,61.87
2022-11-26T05:59:55.633Z,61.88
2022-11-26T06:01:57.384Z,61.80
2022-11-26T06:03:59.125Z,61.87
2022-11-26T06:06:00.792Z,61.85
2022-11-26T06:08:02.577Z,61.87
2022-11-26T06:10:07.144Z,61.81
2022-11-26T06:12:08.825Z,61.93
2022-11-26T06:14:10.643Z,61.90
2022-11-26T06:16:15.409Z,62.12
2022-11-26T06:18:18.079Z,62.21
2022-11-26T06:20:22.203Z,62.08
2022-11-26T06:22:24.035Z,61.92
2022-11-26T06:24:25.787Z,62.10
2022-11-26T06:26:27.725Z,61.98
2022-11-26T06:28:29.221Z,61.94
2022-11-26T06:30:30.873Z,61.84
2022-11-26T06:32:32.765Z,61.98
2022-11-26T06:34:34.582Z,62.15
2022-11-26T06:36:36.358Z,62.25
2022-11-26T06:38:37.982Z,61.86
2022-11-26T06:40:39.690Z,62.04
2022-11-26T06:42:43.833Z,62.05
2022-11-26T06:44:46.451Z,61.90
2022-11-26T06:46:51.003Z,61.98
2022-11-26T06:48:52.548Z,62.18
2022-11-26T06:50:54.202Z,62.11
2022-11-26T06:52:56.237Z,61.97
2022-11-26T06:54:58.043Z,62.10
2022-11-26T06:57:00.287Z,62.38
2022-11-26T06:59:05.027Z,62.11
2022-11-26T07:01:18.259Z,62.05
2022-11-26T07:03:24.260Z,62.02
2022-11-26T07:05:27.295Z,62.15
2022-11-26T07:07:29.065Z,61.79
2022-11-26T07:09:30.751Z,62.15
2022-11-26T07:11:33.458Z,62.03
2022-11-26T07:13:35.019Z,62.04
2022-11-26T07:15:36.725Z,62.16
2022-11-26T07:17:39.646Z,62.06
2022-11-26T07:19:41.181Z,62.10
2022-11-26T07:21:43.075Z,61.73
2022-11-26T07:23:45.110Z,62.07
2022-11-26T07:25:49.034Z,62.13
2022-11-26T07:27:53.574Z,61.89
2022-11-26T07:29:56.565Z,62.03
2022-11-26T07:31:58.404Z,62.00
2022-11-26T07:34:05.235Z,61.74
2022-11-26T07:36:11.313Z,62.00
2022-11-26T07:38:13.100Z,61.73
2022-11-26T07:40:17.654Z,61.86
2022-11-26T07:42:19.178Z,61.70
2022-11-26T07:44:20.727Z,62.00
2022-11-26T07:46:24.506Z,61.75
2022-11-26T07:48:26.200Z,61.73
2022-11-26T07:50:27.935Z,62.04
2022-11-26T07:52:29.520Z,62.21
2022-11-26T07:54:30.973Z,61.50
2022-11-26T07:56:36.307Z,62.10
2022-11-26T07:58:38.007Z,61.82
2022-11-26T08:00:39.846Z,62.00
2022-11-26T08:02:41.540Z,62.51
2022-11-26T08:04:43.193Z,62.10
2022-11-26T08:06:45.024Z,62.71
2022-11-26T08:08:48.029Z,62.17
2022-11-26T08:10:49.826Z,62.13
2022-11-26T08:12:52.426Z,62.11
2022-11-26T08:14:54.319Z,61.85
2022-11-26T08:16:57.416Z,61.94
2022-11-26T08:19:08.134Z,62.09
2022-11-26T08:21:11.996Z,62.20
2022-11-26T08:23:13.691Z,62.02
2022-11-26T08:25:16.118Z,62.30
2022-11-26T08:27:17.676Z,62.26
2022-11-26T08:29:19.565Z,62.17
2022-11-26T08:31:27.897Z,62.31
2022-11-26T08:33:30.214Z,62.26
2022-11-26T08:35:59.078Z,62.24
2022-11-26T08:37:53.474Z,62.26
2022-11-26T08:39:55.164Z,62.30
2022-11-26T08:41:57.321Z,62.32
2022-11-26T08:44:07.698Z,62.29
2022-11-26T08:46:10.816Z,62.25
2022-11-26T08:48:13.349Z,62.19
2022-11-26T08:50:15.924Z,62.16
2022-11-26T08:52:17.523Z,62.24
2022-11-26T08:54:19.147Z,61.89
2022-11-26T08:56:21.127Z,62.14
2022-11-26T08:58:22.724Z,62.29
2022-11-26T09:00:24.417Z,62.09
2022-11-26T09:02:26.067Z,62.06
2022-11-26T09:04:27.855Z,62.16
2022-11-26T09:06:31.175Z,62.39
2022-11-26T09:08:44.813Z,62.16
2022-11-26T09:10:54.172Z,62.31
2022-11-26T09:12:55.994Z,62.24
2022-11-26T09:14:57.792Z,62.37
2022-11-26T09:16:59.721Z,62.16
2022-11-26T09:19:03.737Z,62.15
2022-11-26T09:21:05.548Z,62.15
2022-11-26T09:23:07.437Z,62.41
2022-11-26T09:25:09.650Z,62.17
2022-11-26T09:27:12.156Z,62.47
2022-11-26T09:29:17.401Z,62.21
2022-11-26T09:31:19.467Z,62.25
2022-11-26T09:33:21.182Z,62.43
2022-11-26T09:35:25.443Z,62.13
2022-11-26T09:37:28.428Z,62.32
2022-11-26T09:39:30.317Z,62.36
2022-11-26T09:41:35.214Z,62.35
2022-11-26T09:43:57.592Z,62.28
2022-11-26T09:46:01.014Z,62.16
2022-11-26T09:48:06.327Z,62.20
2022-11-26T09:50:10.633Z,62.20
2022-11-26T09:52:16.893Z,62.21
2022-11-26T09:54:21.772Z,62.16
2022-11-26T09:56:27.364Z,62.38
2022-11-26T09:58:45.613Z,62.29
2022-11-26T10:00:50.658Z,62.26
2022-11-26T10:02:54.056Z,62.21
2022-11-26T10:04:55.773Z,62.21
2022-11-26T10:07:20.674Z,62.06
2022-11-26T10:09:41.419Z,62.15
2022-11-26T10:12:07.436Z,62.05
2022-11-26T10:14:36.181Z,62.13
2022-11-26T10:16:59.100Z,62.15
2022-11-26T10:19:38.470Z,62.27
2022-11-26T10:21:59.628Z,62.14
2022-11-26T10:24:29.802Z,62.39
2022-11-26T10:26:39.408Z,62.22
2022-11-26T10:28:47.634Z,62.24
2022-11-26T10:30:56.837Z,62.17
2022-11-26T10:33:02.515Z,62.18
2022-11-26T10:35:04.813Z,62.25
2022-11-26T10:37:07.605Z,62.11
2022-11-26T10:39:15.302Z,62.17
2022-11-26T10:41:18.172Z,62.02
2022-11-26T10:43:24.180Z,62.13
2022-11-26T10:45:36.501Z,62.11
2022-11-26T10:47:38.517Z,62.15
2022-11-26T10:49:40.185Z,62.11
2022-11-26T10:51:42.127Z,62.14
2022-11-26T10:53:50.801Z,62.03
2022-11-26T10:55:58.674Z,62.23
2022-11-26T10:58:16.332Z,62.02
2022-11-26T11:00:50.130Z,62.05
2022-11-26T11:02:54.124Z,62.08
2022-11-26T11:04:58.452Z,62.08
2022-11-26T11:07:00.559Z,61.99
2022-11-26T11:09:32.316Z,62.16
2022-11-26T11:11:34.070Z,61.92
2022-11-26T11:13:42.068Z,61.90
2022-11-26T11:15:44.427Z,62.02
2022-11-26T11:17:53.592Z,61.93
2022-11-26T11:19:57.966Z,61.90
2022-11-26T11:22:00.275Z,61.84
2022-11-26T11:24:13.724Z,61.96
2022-11-26T11:26:25.744Z,61.98
2022-11-26T11:28:33.389Z,61.90
2022-11-26T11:30:37.584Z,61.76
2022-11-26T11:32:40.739Z,61.63
2022-11-26T11:34:43.065Z,61.66
2022-11-26T11:37:04.673Z,61.90
2022-11-26T11:39:06.337Z,61.91
2022-11-26T11:41:16.810Z,61.64
2022-11-26T11:43:26.858Z,61.90
2022-11-26T11:45:38.486Z,61.63
2022-11-26T11:47:44.141Z,61.68
2022-11-26T11:49:57.986Z,61.71
2022-11-26T11:52:20.021Z,61.66
2022-11-26T11:54:49.659Z,61.68
2022-11-26T11:57:30.500Z,61.54
2022-11-26T12:00:12.802Z,61.69
2022-11-26T12:02:32.101Z,61.79
2022-11-26T12:05:04.127Z,61.67
2022-11-26T12:07:35.691Z,61.69
2022-11-26T12:10:14.505Z,61.45
2022-11-26T12:12:31.125Z,61.49
2022-11-26T12:14:36.780Z,61.45
2022-11-26T12:16:42.865Z,61.72
2022-11-26T12:19:00.646Z,61.54
2022-11-26T12:21:09.780Z,61.31
2022-11-26T12:23:34.976Z,61.39
2022-11-26T12:25:40.268Z,61.43
2022-11-26T12:28:28.894Z,61.36
2022-11-26T12:30:41.983Z,61.25
2022-11-26T12:33:00.763Z,61.22
2022-11-26T12:35:14.918Z,61.33
2022-11-26T12:37:41.568Z,61.35
2022-11-26T12:39:54.240Z,61.21
2022-11-26T12:42:03.675Z,61.42
2022-11-26T12:44:19.746Z,61.26
2022-11-26T12:46:43.307Z,61.26
2022-11-26T12:48:54.914Z,61.21
2022-11-26T12:51:11.963Z,61.22
2022-11-26T12:53:25.646Z,61.24
2022-11-26T12:55:45.623Z,61.26
2022-11-26T12:58:00.822Z,61.23
2022-11-26T13:00:11.385Z,61.13
2022-11-26T13:02:20.634Z,61.03
2022-11-26T13:04:41.472Z,61.11
2022-11-26T13:07:04.897Z,61.01
2022-11-26T13:09:32.108Z,61.02
2022-11-26T13:11:44.963Z,61.10
2022-11-26T13:14:20.779Z,60.85
2022-11-26T13:16:40.767Z,60.75
2022-11-26T13:18:53.472Z,60.94
2022-11-26T13:21:16.361Z,60.94
2022-11-26T13:23:39.561Z,61.00
2022-11-26T13:26:00.137Z,60.93
2022-11-26T13:28:29.550Z,60.94
2022-11-26T13:30:49.715Z,60.90
2022-11-26T13:33:03.416Z,60.90
2022-11-26T13:35:40.457Z,60.73
2022-11-26T13:38:02.841Z,60.46
2022-11-26T13:40:22.776Z,60.79
2022-11-26T13:42:47.564Z,60.78
2022-11-26T13:44:55.054Z,60.78
2022-11-26T13:47:17.105Z,60.75
2022-11-26T13:49:45.788Z,60.81
2022-11-26T13:51:53.849Z,60.78
2022-11-26T13:54:01.393Z,60.60
2022-11-26T13:56:06.497Z,60.83
2022-11-26T13:58:18.588Z,60.73
2022-11-26T14:00:26.453Z,60.58
2022-11-26T14:02:36.682Z,60.52
2022-11-26T14:04:56.621Z,60.58
2022-11-26T14:07:07.281Z,60.52
2022-11-26T14:09:47.342Z,60.57
2022-11-26T14:11:51.102Z,60.43
2022-11-26T14:14:24.645Z,60.58
2022-11-26T14:17:06.379Z,60.50
2022-11-26T14:19:08.164Z,60.60
2022-11-26T14:21:09.965Z,60.51
2022-11-26T14:23:47.479Z,60.51
2022-11-26T14:25:50.473Z,60.52
2022-11-26T14:27:55.751Z,60.47
2022-11-26T14:30:18.237Z,60.27
2022-11-26T14:32:24.389Z,60.40
2022-11-26T14:34:38.545Z,60.26
2022-11-26T14:37:01.149Z,60.12
2022-11-26T14:39:14.175Z,60.28
2022-11-26T14:41:16.074Z,60.21
2022-11-26T14:43:20.136Z,59.96
2022-11-26T14:45:24.303Z,60.33
2022-11-26T14:47:26.340Z,60.23
2022-11-26T14:49:40.245Z,60.17
2022-11-26T14:51:46.312Z,60.14
2022-11-26T14:53:49.749Z,60.20
2022-11-26T14:55:53.065Z,60.09
2022-11-26T14:58:16.546Z,60.03
2022-11-26T15:00:30.359Z,60.07
2022-11-26T15:02:32.307Z,60.22
2022-11-26T15:04:40.513Z,60.00
2022-11-26T15:06:43.324Z,59.70
2022-11-26T15:08:47.861Z,60.12
2022-11-26T15:11:06.784Z,59.87
2022-11-26T15:13:39.407Z,60.11
2022-11-26T15:15:52.749Z,60.03
2022-11-26T15:17:59.285Z,60.04
2022-11-26T15:20:04.439Z,59.98
2022-11-26T15:22:16.882Z,59.97
2022-11-26T15:24:18.891Z,59.93
2022-11-26T15:26:25.809Z,60.01
2022-11-26T15:28:28.231Z,59.91
2022-11-26T15:30:38.032Z,59.75
2022-11-26T15:32:39.787Z,60.06
2022-11-26T15:34:42.156Z,60.00
2022-11-26T15:36:44.433Z,60.01
2022-11-26T15:39:07.861Z,59.87
2022-11-26T15:41:19.901Z,60.17
2022-11-26T15:43:33.788Z,59.98
2022-11-26T15:45:41.189Z,59.89
2022-11-26T15:47:52.383Z,59.80
2022-11-26T15:49:57.666Z,59.84
2022-11-26T15:52:04.250Z,59.87
2022-11-26T15:54:21.704Z,59.90
2022-11-26T15:56:30.234Z,59.89
2022-11-26T15:58:38.273Z,59.96
2022-11-26T16:00:41.589Z,59.74
2022-11-26T16:02:45.192Z,60.25
2022-11-26T16:04:58.395Z,59.93
2022-11-26T16:07:21.505Z,59.78
2022-11-26T16:09:34.423Z,59.84
2022-11-26T16:11:39.371Z,59.87
2022-11-26T16:13:41.359Z,59.66
2022-11-26T16:15:51.770Z,59.71
2022-11-26T16:17:53.951Z,59.39
2022-11-26T16:19:59.142Z,59.70
2022-11-26T16:22:04.292Z,59.77
2022-11-26T16:24:41.947Z,59.59
2022-11-26T16:27:05.235Z,59.82
2022-11-26T16:29:09.980Z,59.84
2022-11-26T16:31:12.746Z,59.80
2022-11-26T16:33:14.478Z,59.83
2022-11-26T16:35:43.391Z,59.71
2022-11-26T16:37:44.546Z,59.68
2022-11-26T16:39:47.610Z,59.82
2022-11-26T16:41:49.230Z,59.75
2022-11-26T16:43:51.134Z,59.81
2022-11-26T16:45:54.999Z,59.35
2022-11-26T16:47:59.166Z,59.46
2022-11-26T16:50:02.487Z,59.47
2022-11-26T16:52:10.939Z,59.49
2022-11-26T16:54:15.811Z,59.69
2022-11-26T16:56:24.272Z,59.52
2022-11-26T16:58:32.854Z,59.59
2022-11-26T17:00:35.626Z,59.48
2022-11-26T17:02:37.596Z,59.51
2022-11-26T17:04:39.304Z,59.56
2022-11-26T17:06:41.706Z,59.53
2022-11-26T17:08:49.235Z,59.50
2022-11-26T17:10:51.523Z,59.65
2022-11-26T17:12:53.222Z,59.76
2022-11-26T17:15:00.477Z,59.49
2022-11-26T17:17:02.549Z,59.61
2022-11-26T17:19:04.571Z,59.83
2022-11-26T17:21:06.617Z,59.57
2022-11-26T17:23:08.258Z,59.47
2022-11-26T17:25:10.227Z,59.72
2022-11-26T17:27:14.418Z,59.58
2022-11-26T17:29:16.157Z,59.89
2022-11-26T17:31:18.125Z,59.76
2022-11-26T17:33:20.003Z,59.87
2022-11-26T17:35:21.750Z,59.75
2022-11-26T17:37:28.622Z,59.51
2022-11-26T17:39:30.394Z,59.50
2022-11-26T17:41:32.044Z,59.52
2022-11-26T17:43:33.654Z,59.70
2022-11-26T17:45:35.665Z,59.62
2022-11-26T17:47:37.917Z,59.42
2022-11-26T17:49:39.670Z,59.68
2022-11-26T17:51:42.740Z,59.64
2022-11-26T17:53:45.059Z,59.69
2022-11-26T17:55:48.376Z,59.48
2022-11-26T17:57:50.526Z,59.67
2022-11-26T17:59:52.287Z,59.63
2022-11-26T18:01:54.189Z,59.53
2022-11-26T18:03:55.886Z,59.84
2022-11-26T18:05:57.475Z,59.64
2022-11-26T18:07:59.356Z,59.79
2022-11-26T18:10:01.298Z,59.74
2022-11-26T18:12:20.139Z,59.61
2022-11-26T18:14:24.973Z,59.60
2022-11-26T18:16:26.670Z,59.84
2022-11-26T18:18:28.453Z,59.48
2022-11-26T18:20:30.202Z,59.84
2022-11-26T18:22:31.890Z,59.85
2022-11-26T18:24:33.584Z,59.86
2022-11-26T18:26:36.425Z,59.80
2022-11-26T18:28:38.170Z,59.90
2022-11-26T18:30:40.020Z,59.66
2022-11-26T18:32:41.807Z,59.82
2022-11-26T18:34:43.766Z,59.72
2022-11-26T18:36:52.266Z,59.87
2022-11-26T18:38:56.445Z,59.55
2022-11-26T18:41:00.087Z,59.65
2022-11-26T18:43:01.914Z,59.76
2022-11-26T18:45:04.003Z,59.85
2022-11-26T18:47:09.279Z,59.91
2022-11-26T18:49:11.311Z,59.77
2022-11-26T18:51:13.985Z,59.96
2022-11-26T18:53:15.701Z,59.52
2022-11-26T18:55:17.533Z,59.56
2022-11-26T18:57:19.402Z,59.79
2022-11-26T18:59:23.259Z,59.52
2022-11-26T19:01:31.251Z,59.58
2022-11-26T19:03:33.636Z,59.69
2022-11-26T19:05:37.443Z,59.75
2022-11-26T19:07:39.236Z,59.85
2022-11-26T19:09:42.668Z,59.54
2022-11-26T19:11:45.420Z,59.57
2022-11-26T19:13:48.342Z,59.64
2022-11-26T19:15:52.951Z,59.56
2022-11-26T19:17:54.683Z,59.62
2022-11-26T19:19:56.503Z,59.51
2022-11-26T19:22:01.316Z,59.81
2022-11-26T19:24:06.451Z,59.60
2022-11-26T19:26:08.243Z,59.92
2022-11-26T19:28:15.479Z,59.52
2022-11-26T19:30:17.372Z,59.43
2022-11-26T19:32:19.229Z,59.73
2022-11-26T19:34:21.356Z,59.54
2022-11-26T19:36:25.217Z,59.87
2022-11-26T19:38:26.805Z,59.72
2022-11-26T19:40:28.839Z,59.54
2022-11-26T19:42:30.696Z,59.94
2022-11-26T19:44:34.396Z,59.52
2022-11-26T19:46:40.804Z,59.78
2022-11-26T19:48:45.264Z,59.63
2022-11-26T19:50:54.541Z,59.66
2022-11-26T19:52:56.269Z,59.70
2022-11-26T19:54:58.267Z,59.70
2022-11-26T19:56:59.846Z,59.73
2022-11-26T19:59:02.258Z,59.58
2022-11-26T20:01:09.311Z,59.52
2022-11-26T20:03:11.282Z,59.44
2022-11-26T20:05:13.455Z,59.39
2022-11-26T20:07:15.170Z,59.26
2022-11-26T20:09:16.900Z,59.42
2022-11-26T20:11:19.757Z,59.44
2022-11-26T20:13:21.471Z,59.04
2022-11-26T20:15:23.282Z,59.37
2022-11-26T20:17:25.315Z,59.21
2022-11-26T20:19:27.274Z,59.29
2022-11-26T20:21:32.432Z,59.03
2022-11-26T20:23:34.107Z,59.17
2022-11-26T20:25:37.015Z,59.20
2022-11-26T20:27:39.835Z,58.94
2022-11-26T20:29:41.640Z,58.81
2022-11-26T20:31:49.091Z,58.85
2022-11-26T20:33:52.783Z,58.74
2022-11-26T20:35:54.918Z,58.68
2022-11-26T20:37:56.779Z,58.52
2022-11-26T20:39:58.535Z,58.68
2022-11-26T20:42:00.775Z,58.84
2022-11-26T20:44:02.535Z,58.55
2022-11-26T20:46:06.595Z,58.49
2022-11-26T20:48:08.794Z,58.35
2022-11-26T20:50:10.964Z,58.43
2022-11-26T20:52:12.607Z,58.09
2022-11-26T20:54:14.510Z,58.08
2022-11-26T20:56:17.612Z,58.30
2022-11-26T20:58:19.674Z,58.38
2022-11-26T21:00:27.184Z,58.54
2022-11-26T21:02:29.811Z,58.29
2022-11-26T21:04:31.743Z,58.26
2022-11-26T21:06:34.921Z,58.07
2022-11-26T21:08:36.562Z,58.37
2022-11-26T21:10:39.972Z,58.47
2022-11-26T21:12:41.869Z,58.39
2022-11-26T21:14:43.677Z,58.51
2022-11-26T21:16:45.514Z,58.06
2022-11-26T21:18:47.143Z,58.19
2022-11-26T21:20:48.867Z,58.04
2022-11-26T21:22:50.554Z,58.40
2022-11-26T21:24:52.333Z,58.19
2022-11-26T21:26:53.917Z,58.28
2022-11-26T21:28:57.520Z,58.37
2022-11-26T21:31:08.089Z,58.23
2022-11-26T21:33:09.866Z,58.24
2022-11-26T21:35:11.992Z,58.23
2022-11-26T21:37:14.021Z,58.21
2022-11-26T21:39:16.896Z,58.33
2022-11-26T21:41:19.973Z,58.13
2022-11-26T21:43:21.603Z,58.22
2022-11-26T21:45:24.665Z,58.33
2022-11-26T21:47:26.286Z,58.33
2022-11-26T21:49:30.893Z,58.10
2022-11-26T21:51:32.463Z,58.23
2022-11-26T21:53:35.078Z,57.85
2022-11-26T21:55:36.890Z,57.86
2022-11-26T21:57:38.809Z,58.03
2022-11-26T21:59:40.899Z,57.97
2022-11-26T22:01:43.108Z,58.18
2022-11-26T22:03:47.908Z,58.02
2022-11-26T22:05:50.104Z,57.73
2022-11-26T22:07:52.046Z,57.81
2022-11-26T22:09:56.106Z,57.64
2022-11-26T22:11:58.034Z,57.70
2022-11-26T22:13:59.689Z,57.56
2022-11-26T22:16:01.773Z,57.71
2022-11-26T22:18:03.505Z,57.56
2022-11-26T22:20:05.858Z,57.68
2022-11-26T22:22:07.520Z,57.51
2022-11-26T22:24:16.059Z,57.57
2022-11-26T22:26:18.851Z,57.64
2022-11-26T22:28:28.495Z,57.69
2022-11-26T22:30:31.670Z,57.67
2022-11-26T22:32:35.545Z,57.56
2022-11-26T22:34:37.664Z,57.47
2022-11-26T22:36:40.740Z,57.70
2022-11-26T22:38:43.013Z,57.60
2022-11-26T22:40:44.949Z,57.59
2022-11-26T22:42:47.119Z,57.79
2022-11-26T22:44:49.014Z,57.70
2022-11-26T22:46:50.942Z,57.76
2022-11-26T22:48:54.828Z,57.69
2022-11-26T22:50:56.683Z,57.69
2022-11-26T22:52:58.435Z,57.82
2022-11-26T22:55:00.101Z,57.74
2022-11-26T22:57:01.757Z,57.72
2022-11-26T22:59:04.943Z,57.59
2022-11-26T23:01:08.960Z,57.83
2022-11-26T23:03:14.067Z,57.60
2022-11-26T23:05:15.877Z,57.55
2022-11-26T23:07:17.675Z,57.74
2022-11-26T23:09:19.761Z,57.83
2022-11-26T23:11:33.391Z,57.70
2022-11-26T23:13:35.551Z,57.63
2022-11-26T23:15:46.929Z,57.54
2022-11-26T23:17:49.480Z,57.64
2022-11-26T23:19:51.047Z,57.82
2022-11-26T23:21:52.835Z,57.79
2022-11-26T23:23:56.452Z,57.81
2022-11-26T23:25:58.299Z,57.84
2022-11-26T23:28:00.006Z,57.97
2022-11-26T23:30:01.558Z,57.86
2022-11-26T23:32:03.269Z,57.95
2022-11-26T23:34:05.704Z,58.03
2022-11-26T23:36:07.930Z,58.01
2022-11-26T23:38:10.072Z,58.10
2022-11-26T23:40:13.339Z,57.93
2022-11-26T23:42:15.010Z,58.01
2022-11-26T23:44:16.516Z,58.25
2022-11-26T23:46:32.799Z,58.08
2022-11-26T23:48:34.458Z,58.34
2022-11-26T23:50:36.103Z,58.56
2022-11-26T23:52:37.649Z,58.35
2022-11-26T23:54:39.078Z,58.54
2022-11-26T23:56:44.600Z,58.19
2022-11-26T23:58:50.651Z,58.70
